Cincinnati Municipal Airport Lunken Field
KLUK : now visible

Airfield :











YOU CAN JOIN US ON...

 
LOGIN :

Register | Disclaimer

   EN    FR    IT 

 









Legend :    VFR   Marginal VFR   IFR   Intensive IFR   Very Intensive IFR
Visi :
Ceiling :
>= 8 km
>= 3000ft
5 to 8 km
1000 to 3000 ft
1500m to 5 km
500 to 1000 ft
800 to 1500m
200 to 500 ft
< 800m
< 200 ft
Symbols :   Thunderstorms  Fog  Heavy snow  Heavy precipitations  Wind > 20 kt






- Airport Elevation : 483 ft
- IATA code : LUK


KLUK - Cincinnati Municipal Lunken Field

CURRENT METAR :
  • 081853Z 36013G17KT 10SM SCT070 27/11 A2970 RMK AO2 SLP052 T02720106

EXPIRED METARs :
  • 081753Z 33007G24KT 10SM SCT043 27/13 A2970 RMK AO2 SLP053 T02670128 10267 20206 58012
  • 081653Z COR 35009KT 10SM SCT043 25/15 A2972 RMK AO2 LTG DSNT SE AND SW SLP059 T02500150

TAF KLUK
Valid from the 08 at 18:00 until the 09 at 18:00 UTC


081740Z 0818/0918 34010KT P6SM SCT040
FM090200 21011KT P6SM -SHRA VCTS SCT020CB BKN040
TEMPO 0903/0904 1SM -TSRA BR SCT006 OVC018CB
FM090700 31011KT P6SM OVC015
TEMPO 0909/0911 BKN030
FM091100 31012G20KT P6SM SCT040



MET'MAP, your aeronautical weather chart ! - Copyright ORBIFLY December 2007 - Disclaimer

ORBIFLY MET'MAP TEAM :

Programming & Development : Alexandra Zaïnal
Concept & original design : Baudouin d'Aumeries
Assistance for programming : Marc-Olivier Méhu
Technical & hardware support : Manuel Goepfert

Contact : metmap@orbifly.com




SOURCES & CREDITS :

   NOAA       Earth
Advisory